createdAt,value
2023-11-27T00:00:22.531Z,65.50
2023-11-27T00:03:15.035Z,63.70
2023-11-27T00:06:00.564Z,64.40
2023-11-27T00:08:45.828Z,65.60
2023-11-27T00:11:31.872Z,64.10
2023-11-27T00:14:17.794Z,65.00
2023-11-27T00:17:03.483Z,65.10
2023-11-27T00:19:48.898Z,65.30
2023-11-27T00:22:34.692Z,65.40
2023-11-27T00:25:21.056Z,65.40
2023-11-27T00:28:07.675Z,64.90
2023-11-27T00:30:53.234Z,65.20
2023-11-27T00:33:39.077Z,65.00
2023-11-27T00:36:25.225Z,64.40
2023-11-27T00:39:10.781Z,64.10
2023-11-27T00:41:56.172Z,65.10
2023-11-27T00:44:44.446Z,65.20
2023-11-27T00:47:31.030Z,65.90
2023-11-27T00:50:16.675Z,66.30
2023-11-27T00:53:02.424Z,66.70
2023-11-27T00:55:47.884Z,66.80
2023-11-27T00:58:33.690Z,67.50
2023-11-27T01:01:20.204Z,69.00
2023-11-27T01:04:05.677Z,68.50
2023-11-27T01:06:52.422Z,69.60
2023-11-27T01:09:39.791Z,69.40
2023-11-27T01:12:25.490Z,69.30
2023-11-27T01:15:14.911Z,69.50
2023-11-27T01:18:00.615Z,69.40
2023-11-27T01:20:47.191Z,69.40
2023-11-27T01:23:32.988Z,68.90
2023-11-27T01:26:18.610Z,69.20
2023-11-27T01:29:04.363Z,69.50
2023-11-27T01:31:52.797Z,69.40
2023-11-27T01:34:38.170Z,69.30
2023-11-27T01:37:23.738Z,69.40
2023-11-27T01:40:10.363Z,69.20
2023-11-27T01:42:56.258Z,69.40
2023-11-27T01:45:42.446Z,69.30
2023-11-27T01:48:28.525Z,69.50
2023-11-27T01:51:13.995Z,69.90
2023-11-27T01:53:59.812Z,69.80
2023-11-27T01:56:49.689Z,69.70
2023-11-27T01:59:35.823Z,70.00
2023-11-27T02:02:21.994Z,70.50
2023-11-27T02:05:09.158Z,70.20
2023-11-27T02:07:54.777Z,69.80
2023-11-27T02:10:40.166Z,69.90
2023-11-27T02:13:26.529Z,69.40
2023-11-27T02:16:12.509Z,70.50
2023-11-27T02:18:58.072Z,69.80
2023-11-27T02:21:46.898Z,69.80
2023-11-27T02:24:32.562Z,70.90
2023-11-27T02:27:18.032Z,70.40
2023-11-27T02:30:03.924Z,70.20
2023-11-27T02:32:49.624Z,69.80
2023-11-27T02:35:35.841Z,68.50
2023-11-27T02:38:21.776Z,68.20
2023-11-27T02:41:07.972Z,68.80
2023-11-27T02:43:53.619Z,68.30
2023-11-27T02:46:39.204Z,68.00
2023-11-27T02:49:24.562Z,67.30
2023-11-27T02:52:10.156Z,66.20
2023-11-27T02:54:57.202Z,67.20
2023-11-27T02:57:43.149Z,66.60
2023-11-27T03:00:31.652Z,67.50
2023-11-27T03:03:17.121Z,68.00
2023-11-27T03:06:02.843Z,68.40
2023-11-27T03:08:48.749Z,68.40
2023-11-27T03:11:34.534Z,68.50
2023-11-27T03:14:20.637Z,68.80
2023-11-27T03:17:12.708Z,68.60
2023-11-27T03:19:58.303Z,68.50
2023-11-27T03:22:44.018Z,68.60
2023-11-27T03:25:29.532Z,68.80
2023-11-27T03:28:15.121Z,68.30
2023-11-27T03:31:00.649Z,68.00
2023-11-27T03:33:46.386Z,68.00
2023-11-27T03:36:31.812Z,68.30
2023-11-27T03:39:17.419Z,69.00
2023-11-27T03:42:03.151Z,68.70
2023-11-27T03:44:48.459Z,68.90
2023-11-27T03:47:33.913Z,69.20
2023-11-27T03:50:19.481Z,69.30
2023-11-27T03:53:08.703Z,70.00
2023-11-27T03:55:54.882Z,70.20
2023-11-27T03:58:40.356Z,70.10
2023-11-27T04:01:26.176Z,69.70
2023-11-27T04:04:14.129Z,69.40
2023-11-27T04:07:01.651Z,68.80
2023-11-27T04:09:47.487Z,68.80
2023-11-27T04:12:34.070Z,68.90
2023-11-27T04:15:19.841Z,68.40
2023-11-27T04:18:08.127Z,69.10
2023-11-27T04:20:53.899Z,68.90
2023-11-27T04:23:39.552Z,68.90
2023-11-27T04:26:25.765Z,69.80
2023-11-27T04:29:11.696Z,70.10
2023-11-27T04:31:57.008Z,70.80
2023-11-27T04:34:42.721Z,70.20
2023-11-27T04:37:28.487Z,69.60
2023-11-27T04:40:16.018Z,69.10
2023-11-27T04:43:01.893Z,69.60
2023-11-27T04:45:47.374Z,70.80
2023-11-27T04:48:33.104Z,71.00
2023-11-27T04:51:18.574Z,71.60
2023-11-27T04:54:04.462Z,71.40
2023-11-27T04:56:50.611Z,71.00
2023-11-27T04:59:36.205Z,70.20
2023-11-27T05:02:22.269Z,70.30
2023-11-27T05:05:08.006Z,71.10
2023-11-27T05:07:53.639Z,69.50
2023-11-27T05:10:40.503Z,69.80
2023-11-27T05:13:25.934Z,70.10
2023-11-27T05:16:11.754Z,69.50
2023-11-27T05:18:57.248Z,69.20
2023-11-27T05:21:43.200Z,69.80
2023-11-27T05:24:29.163Z,69.80
2023-11-27T05:27:14.648Z,69.20
2023-11-27T05:30:00.054Z,69.20
2023-11-27T05:32:45.506Z,69.10
2023-11-27T05:35:30.854Z,69.10
2023-11-27T05:38:16.330Z,68.50
2023-11-27T05:41:02.943Z,68.40
2023-11-27T05:43:48.505Z,68.70
2023-11-27T05:46:34.092Z,68.90
2023-11-27T05:49:20.159Z,68.60
2023-11-27T05:52:06.132Z,68.60
2023-11-27T05:54:51.943Z,68.60
2023-11-27T05:57:37.332Z,66.90
2023-11-27T06:00:26.117Z,67.60
2023-11-27T06:03:12.140Z,67.70
2023-11-27T06:05:58.396Z,67.40
2023-11-27T06:08:44.728Z,68.00
2023-11-27T06:11:32.090Z,68.70
2023-11-27T06:14:19.896Z,67.80
2023-11-27T06:17:06.868Z,68.30
2023-11-27T06:19:52.477Z,67.30
2023-11-27T06:22:37.851Z,67.60
2023-11-27T06:25:23.517Z,67.60
2023-11-27T06:28:09.120Z,69.50
2023-11-27T06:30:55.537Z,68.80
2023-11-27T06:33:41.165Z,68.20
2023-11-27T06:36:27.540Z,67.40
2023-11-27T06:39:13.446Z,67.50
2023-11-27T06:41:59.836Z,67.20
2023-11-27T06:44:45.448Z,66.40
2023-11-27T06:47:31.324Z,66.30
2023-11-27T06:50:18.940Z,66.50
2023-11-27T06:53:04.224Z,67.90
2023-11-27T06:55:49.804Z,67.20
2023-11-27T06:58:35.658Z,67.30
2023-11-27T07:01:21.487Z,66.70
2023-11-27T07:04:07.534Z,67.30
2023-11-27T07:06:52.856Z,66.90
2023-11-27T07:09:38.316Z,66.30
2023-11-27T07:12:26.684Z,66.50
2023-11-27T07:15:13.390Z,66.70
2023-11-27T07:18:10.173Z,65.30
2023-11-27T07:21:03.039Z,65.50
2023-11-27T07:23:48.684Z,65.30
2023-11-27T07:26:34.431Z,64.80
2023-11-27T07:29:32.489Z,63.30
2023-11-27T07:32:19.392Z,63.90
2023-11-27T07:35:05.369Z,63.20
2023-11-27T07:37:50.831Z,63.50
2023-11-27T07:40:36.756Z,63.60
2023-11-27T07:43:22.334Z,63.30
2023-11-27T07:46:15.170Z,63.40
2023-11-27T07:49:01.101Z,63.40
2023-11-27T07:51:46.449Z,63.20
2023-11-27T07:54:32.720Z,63.10
2023-11-27T07:57:18.486Z,63.00
2023-11-27T08:00:08.246Z,62.70
2023-11-27T08:02:54.616Z,62.50
2023-11-27T08:05:40.377Z,61.80
2023-11-27T08:08:26.445Z,61.50
2023-11-27T08:11:12.212Z,60.80
2023-11-27T08:13:57.967Z,60.80
2023-11-27T08:16:49.081Z,61.30
2023-11-27T08:19:35.040Z,59.90
2023-11-27T08:22:20.612Z,59.60
2023-11-27T08:25:06.177Z,59.30
2023-11-27T08:27:53.812Z,60.80
2023-11-27T08:30:42.735Z,60.40
2023-11-27T08:33:28.448Z,61.00
2023-11-27T08:36:14.068Z,60.20
2023-11-27T08:38:59.949Z,60.40
2023-11-27T08:41:45.318Z,58.20
2023-11-27T08:44:30.900Z,59.20
2023-11-27T08:47:16.776Z,59.00
2023-11-27T08:50:02.402Z,60.00
2023-11-27T08:52:47.971Z,58.80
2023-11-27T08:55:33.388Z,58.80
2023-11-27T08:58:19.343Z,58.60
2023-11-27T09:01:07.037Z,59.60
2023-11-27T09:03:52.533Z,59.70
2023-11-27T09:06:38.247Z,59.60
2023-11-27T09:09:25.216Z,60.00
2023-11-27T09:12:11.144Z,60.20
2023-11-27T09:14:56.766Z,59.70
2023-11-27T09:17:43.226Z,58.70
2023-11-27T09:20:28.721Z,57.20
2023-11-27T09:23:14.415Z,57.30
2023-11-27T09:26:00.742Z,57.40
2023-11-27T09:28:48.744Z,57.00
2023-11-27T09:31:34.849Z,57.30
2023-11-27T09:34:20.168Z,56.50
2023-11-27T09:37:07.046Z,56.80
2023-11-27T09:39:52.697Z,56.00
2023-11-27T09:42:46.294Z,52.90
2023-11-27T09:45:33.939Z,53.10
2023-11-27T09:48:20.182Z,53.40
2023-11-27T09:51:12.614Z,55.20
2023-11-27T09:53:58.929Z,54.90
2023-11-27T09:56:46.120Z,55.40
2023-11-27T09:59:40.031Z,54.90
2023-11-27T10:02:27.006Z,55.50
2023-11-27T10:05:13.129Z,54.40
2023-11-27T10:07:59.531Z,54.50
2023-11-27T10:10:45.756Z,55.00
2023-11-27T10:13:51.732Z,54.90
2023-11-27T10:16:43.951Z,54.30
2023-11-27T10:19:29.461Z,52.70
2023-11-27T10:22:14.900Z,53.30
2023-11-27T10:25:01.703Z,53.80
2023-11-27T10:27:47.543Z,52.20
2023-11-27T10:30:33.237Z,53.00
2023-11-27T10:33:18.575Z,53.00
2023-11-27T10:36:06.802Z,50.00
2023-11-27T10:39:16.731Z,48.60
2023-11-27T10:42:05.276Z,49.50
2023-11-27T10:44:51.982Z,51.70
2023-11-27T10:47:38.808Z,52.10
2023-11-27T10:50:26.481Z,52.20
2023-11-27T10:53:14.708Z,51.40
2023-11-27T10:56:02.771Z,49.70
2023-11-27T10:58:50.949Z,48.30
2023-11-27T11:01:40.544Z,49.40
2023-11-27T11:04:36.696Z,47.80
2023-11-27T11:07:48.388Z,46.60
2023-11-27T11:10:35.870Z,48.00
2023-11-27T11:13:25.020Z,46.80
2023-11-27T11:16:20.245Z,45.50
2023-11-27T11:19:13.795Z,44.80
2023-11-27T11:22:27.320Z,46.40
2023-11-27T11:25:23.571Z,46.80
2023-11-27T11:28:27.154Z,44.90
2023-11-27T11:31:19.783Z,43.30
2023-11-27T11:34:07.126Z,43.00
2023-11-27T11:37:00.424Z,44.40
2023-11-27T11:39:50.960Z,41.60
2023-11-27T11:42:37.614Z,41.80
2023-11-27T11:45:34.508Z,42.90
2023-11-27T11:48:22.139Z,45.50
2023-11-27T11:51:17.091Z,44.10
2023-11-27T11:54:05.385Z,44.50
2023-11-27T11:56:50.971Z,43.50
2023-11-27T11:59:40.310Z,42.40
2023-11-27T12:02:26.275Z,43.60
2023-11-27T12:05:13.802Z,43.70
2023-11-27T12:07:59.445Z,44.00
2023-11-27T12:10:45.221Z,43.60
2023-11-27T12:13:37.379Z,43.40
2023-11-27T12:16:24.329Z,44.80
2023-11-27T12:19:09.657Z,44.80
2023-11-27T12:21:55.400Z,46.50
2023-11-27T12:24:45.681Z,46.00
2023-11-27T12:27:31.349Z,46.50
2023-11-27T12:30:21.699Z,46.50
2023-11-27T12:33:09.330Z,46.50
2023-11-27T12:35:55.494Z,46.60
2023-11-27T12:38:41.874Z,46.30
2023-11-27T12:41:34.629Z,43.90
2023-11-27T12:44:21.626Z,43.20
2023-11-27T12:47:07.662Z,44.70
2023-11-27T12:49:53.686Z,43.20
2023-11-27T12:52:39.265Z,41.80
2023-11-27T12:55:38.322Z,41.40
2023-11-27T12:58:25.200Z,40.30
2023-11-27T13:01:12.903Z,40.10
2023-11-27T13:04:00.945Z,39.70
2023-11-27T13:06:46.343Z,38.70
2023-11-27T13:09:35.996Z,39.40
2023-11-27T13:12:24.241Z,39.00
2023-11-27T13:15:11.696Z,39.60
2023-11-27T13:18:02.444Z,38.00
2023-11-27T13:20:54.903Z,38.90
2023-11-27T13:23:40.418Z,41.40
2023-11-27T13:26:36.208Z,42.60
2023-11-27T13:29:26.194Z,43.90
2023-11-27T13:32:15.056Z,41.60
2023-11-27T13:35:00.993Z,42.10
2023-11-27T13:37:49.331Z,43.80
2023-11-27T13:40:38.219Z,42.90
2023-11-27T13:43:29.800Z,41.50
2023-11-27T13:46:15.878Z,42.00
2023-11-27T13:49:01.768Z,41.60
2023-11-27T13:51:47.516Z,42.00
2023-11-27T13:54:33.891Z,42.80
2023-11-27T13:57:29.037Z,42.60
2023-11-27T14:00:23.518Z,41.70
2023-11-27T14:03:12.655Z,43.10
2023-11-27T14:06:00.685Z,45.00
2023-11-27T14:08:53.118Z,44.30
2023-11-27T14:11:50.269Z,44.90
2023-11-27T14:14:36.145Z,45.20
2023-11-27T14:17:32.618Z,46.40
2023-11-27T14:20:37.399Z,47.70
2023-11-27T14:23:26.993Z,47.60
2023-11-27T14:26:12.498Z,48.80
2023-11-27T14:29:01.756Z,48.30
2023-11-27T14:31:48.113Z,48.00
2023-11-27T14:34:33.796Z,48.10
2023-11-27T14:37:23.056Z,48.00
2023-11-27T14:40:20.925Z,47.80
2023-11-27T14:43:07.029Z,48.20
2023-11-27T14:45:53.768Z,49.00
2023-11-27T14:48:40.284Z,49.10
2023-11-27T14:51:26.732Z,49.30
2023-11-27T14:54:12.258Z,51.00
2023-11-27T14:56:58.152Z,51.10
2023-11-27T14:59:47.827Z,51.20
2023-11-27T15:02:37.357Z,51.70
2023-11-27T15:05:23.404Z,51.00
2023-11-27T15:08:08.985Z,47.60
2023-11-27T15:10:54.935Z,41.90
2023-11-27T15:13:45.521Z,38.70
2023-11-27T15:16:31.198Z,37.20
2023-11-27T15:19:19.719Z,35.70
2023-11-27T15:22:08.780Z,35.80
2023-11-27T15:24:58.142Z,35.70
2023-11-27T15:27:44.013Z,37.10
2023-11-27T15:30:31.699Z,35.70
2023-11-27T15:33:18.069Z,36.20
2023-11-27T15:36:09.469Z,36.00
2023-11-27T15:38:55.150Z,35.80
2023-11-27T15:41:44.137Z,35.40
2023-11-27T15:44:29.962Z,36.30
2023-11-27T15:47:16.888Z,36.30
2023-11-27T15:50:05.705Z,35.70
2023-11-27T15:52:51.472Z,35.80
2023-11-27T15:55:37.202Z,36.70
2023-11-27T15:58:22.638Z,37.80
2023-11-27T16:01:08.233Z,37.20
2023-11-27T16:03:54.087Z,37.40
2023-11-27T16:06:40.003Z,38.00
2023-11-27T16:09:26.416Z,37.90
2023-11-27T16:12:11.916Z,38.40
2023-11-27T16:14:57.709Z,40.40
2023-11-27T16:20:36.319Z,43.00
2023-11-27T16:23:28.173Z,44.20
2023-11-27T16:26:14.431Z,44.70
2023-11-27T16:29:00.638Z,50.90
2023-11-27T16:31:46.639Z,53.20
2023-11-27T16:34:32.927Z,57.50
2023-11-27T16:37:19.034Z,62.50
2023-11-27T16:40:15.911Z,66.30
2023-11-27T16:43:01.390Z,70.80
2023-11-27T16:45:48.673Z,73.80
2023-11-27T16:48:37.016Z,76.10
2023-11-27T16:51:23.132Z,76.90
2023-11-27T16:54:11.732Z,78.50
2023-11-27T16:56:57.277Z,79.50
2023-11-27T16:59:42.731Z,80.30
2023-11-27T17:02:28.549Z,79.40
2023-11-27T17:05:14.319Z,80.40
2023-11-27T17:08:01.195Z,80.60
2023-11-27T17:10:49.350Z,81.00
2023-11-27T17:13:35.605Z,80.10
2023-11-27T17:16:21.605Z,82.50
2023-11-27T17:19:09.746Z,82.80
2023-11-27T17:21:55.480Z,83.30
2023-11-27T17:24:41.088Z,85.40
2023-11-27T17:27:26.772Z,84.60
2023-11-27T17:30:17.679Z,85.20
2023-11-27T17:33:07.056Z,86.00
2023-11-27T17:35:52.918Z,86.10
2023-11-27T17:38:38.439Z,86.40
2023-11-27T17:41:24.734Z,87.30
2023-11-27T17:44:10.369Z,87.20
2023-11-27T17:46:56.079Z,88.60
2023-11-27T17:49:41.900Z,88.30
2023-11-27T17:52:27.263Z,89.10
2023-11-27T17:55:15.155Z,89.10
2023-11-27T17:58:01.069Z,89.30
2023-11-27T18:00:47.865Z,88.70
2023-11-27T18:03:34.255Z,88.00
2023-11-27T18:06:19.986Z,86.40
2023-11-27T18:09:05.488Z,86.40
2023-11-27T18:11:51.040Z,86.20
2023-11-27T18:14:36.435Z,85.70
2023-11-27T18:17:21.891Z,85.00
2023-11-27T18:20:10.221Z,86.10
2023-11-27T18:22:55.586Z,85.40
2023-11-27T18:25:41.425Z,85.80
2023-11-27T18:28:27.443Z,84.50
2023-11-27T18:31:13.304Z,84.30
2023-11-27T18:34:00.212Z,84.20
2023-11-27T18:36:45.673Z,85.10
2023-11-27T18:39:34.128Z,85.90
2023-11-27T18:42:21.869Z,86.20
2023-11-27T18:45:09.637Z,86.40
2023-11-27T18:47:55.604Z,85.90
2023-11-27T18:50:40.983Z,85.90
2023-11-27T18:53:26.677Z,86.30
2023-11-27T18:56:12.357Z,85.20
2023-11-27T18:58:58.013Z,84.70
2023-11-27T19:01:43.667Z,84.60
2023-11-27T19:04:29.752Z,84.00
2023-11-27T19:07:15.470Z,83.90
2023-11-27T19:10:03.979Z,83.70
2023-11-27T19:12:50.281Z,82.90
2023-11-27T19:15:36.603Z,82.20
2023-11-27T19:18:23.262Z,82.50
2023-11-27T19:21:11.451Z,81.80
2023-11-27T19:23:57.189Z,82.60
2023-11-27T19:26:42.561Z,82.80
2023-11-27T19:29:28.355Z,82.30
2023-11-27T19:32:14.105Z,82.20
2023-11-27T19:34:59.494Z,81.80
2023-11-27T19:37:45.000Z,81.00
2023-11-27T19:40:30.558Z,83.30
2023-11-27T19:43:16.630Z,83.50
2023-11-27T19:46:03.451Z,83.80
2023-11-27T19:48:50.514Z,83.10
2023-11-27T19:51:36.521Z,83.00
2023-11-27T19:54:22.444Z,83.20
2023-11-27T19:57:07.757Z,83.20
2023-11-27T19:59:55.057Z,82.90
2023-11-27T20:02:42.608Z,82.30
2023-11-27T20:05:29.172Z,82.70
2023-11-27T20:08:15.083Z,84.00
2023-11-27T20:11:01.418Z,84.40
2023-11-27T20:13:47.232Z,84.00
2023-11-27T20:16:32.987Z,84.10
2023-11-27T20:19:18.605Z,83.60
2023-11-27T20:22:04.634Z,83.20
2023-11-27T20:24:50.549Z,82.30
2023-11-27T20:27:36.120Z,82.50
2023-11-27T20:30:24.466Z,81.80
2023-11-27T20:33:37.007Z,82.00
2023-11-27T20:36:22.997Z,81.60
2023-11-27T20:39:11.525Z,81.90
2023-11-27T20:41:57.165Z,81.70
2023-11-27T20:44:50.800Z,82.10
2023-11-27T20:47:41.365Z,82.50
2023-11-27T20:50:26.792Z,83.20
2023-11-27T20:53:12.638Z,83.40
2023-11-27T20:55:58.354Z,83.50
2023-11-27T20:58:44.769Z,82.90
2023-11-27T21:01:30.478Z,83.10
2023-11-27T21:04:16.115Z,84.80
2023-11-27T21:07:02.006Z,84.20
2023-11-27T21:09:47.536Z,85.40
2023-11-27T21:12:32.869Z,85.30
2023-11-27T21:15:18.361Z,85.80
2023-11-27T21:18:07.735Z,85.80
2023-11-27T21:20:53.485Z,86.20
2023-11-27T21:23:39.227Z,86.20
2023-11-27T21:26:26.372Z,88.40
2023-11-27T21:29:12.096Z,88.60
2023-11-27T21:31:57.648Z,88.10
2023-11-27T21:34:43.688Z,87.40
2023-11-27T21:37:29.511Z,87.20
2023-11-27T21:40:17.257Z,87.40
2023-11-27T21:43:03.986Z,86.80
2023-11-27T21:45:49.753Z,86.30
2023-11-27T21:48:35.387Z,86.40
2023-11-27T21:51:21.051Z,86.00
2023-11-27T21:54:07.601Z,85.90
2023-11-27T21:56:53.569Z,86.10
2023-11-27T21:59:39.285Z,86.50
2023-11-27T22:02:25.272Z,86.40
2023-11-27T22:05:11.183Z,87.00
2023-11-27T22:07:57.232Z,87.40
2023-11-27T22:10:42.759Z,86.20
2023-11-27T22:13:28.532Z,86.40
2023-11-27T22:16:13.988Z,86.30
2023-11-27T22:18:59.566Z,87.60
2023-11-27T22:21:44.985Z,87.00
2023-11-27T22:24:30.492Z,87.40
2023-11-27T22:27:16.243Z,86.90
2023-11-27T22:30:01.761Z,88.90
2023-11-27T22:32:47.347Z,88.40
2023-11-27T22:35:32.813Z,87.20
2023-11-27T22:38:18.268Z,86.80
2023-11-27T22:41:04.078Z,88.80
2023-11-27T22:43:49.448Z,89.00
2023-11-27T22:46:35.016Z,88.10
2023-11-27T22:49:22.160Z,89.30
2023-11-27T22:52:08.054Z,89.20
2023-11-27T22:54:53.933Z,88.90
2023-11-27T22:57:39.409Z,88.00
2023-11-27T23:00:27.517Z,87.60
2023-11-27T23:03:13.183Z,87.30
2023-11-27T23:05:59.374Z,87.70
2023-11-27T23:08:45.015Z,87.80
2023-11-27T23:11:30.970Z,87.10
2023-11-27T23:14:16.968Z,86.50
2023-11-27T23:17:02.487Z,85.90
2023-11-27T23:19:49.543Z,86.10
2023-11-27T23:22:35.300Z,86.30
2023-11-27T23:25:21.886Z,85.90
2023-11-27T23:28:10.322Z,85.60
2023-11-27T23:30:58.673Z,85.90
2023-11-27T23:33:44.138Z,86.00
2023-11-27T23:36:30.889Z,85.40
2023-11-27T23:39:16.638Z,86.50
2023-11-27T23:42:02.377Z,86.40
2023-11-27T23:44:47.759Z,85.90
2023-11-27T23:47:33.263Z,85.70
2023-11-27T23:50:19.095Z,86.80
2023-11-27T23:53:08.071Z,87.20
2023-11-27T23:55:54.454Z,87.60
2023-11-27T23:58:40.887Z,88.60
